PWSweather.com
Personal Weather Stations
Station Observations
MUTNCOVE
Mouton Cove, Abbeville, LA 70510

Mouton CoveAbbeville, LA 70510

Lat: 29.875016, Lon: -92.218675

Elevation: 32

Station Type: Acurite 5-in-1

http://www.moutoncoveweather.com/

Latest ConditionsUpdated 5:00:02 PM CDT Friday, Oct 18, 2019
Currently Today's Max Today's Min Today's Average
Temperature 76.8°F24.9°C 79.3°F26.3°C 59.0°F15.0°C 67.0°F19.4°C
Dew Point 67.5°F19.7°C 68.2°F20.1°C 58.4°F14.7°C 62.3°F16.8°C
Winds 4.6 mph NE7.4 kmh NE 8.1 mph -13.0 kmh - - 4.6 mph 7.4 kmh
Wind Gusts 5.8 mph9.3 kmh 10.4 mph16.7 kmh - -
Humidity 73% 99% 69% 86%
Pressure 29.87 in1011.5 mb 30.05 in1017.6 mb 29.87 in1011.5 mb -
Precipitation - 0.01 in0.3 mm - -
Hour Temp Dew Point Humidity Winds Wind Gusts Pressure Precip Precip Rate Daily Precip Total
05:00 PM 76.8°F24.9°C 67.5°F19.7°C 73% 4.6 mph NE7.4 kmh NE 5.8 mph9.3 kmh 29.87 in1011.5 mb - 0.00 in0.0 mm 0.01 in0.3 mm
04:30 PM 77.4°F25.2°C 67.3°F19.6°C 71% 5.8 mph E9.3 kmh E 5.8 mph9.3 kmh 29.88 in1011.9 mb - 0.00 in0.0 mm 0.01 in0.3 mm
04:00 PM 78.0°F25.6°C 67.4°F19.7°C 70% 3.5 mph E5.6 kmh E 4.6 mph7.4 kmh 29.89 in1012.2 mb - 0.00 in0.0 mm 0.01 in0.3 mm
03:30 PM 79.3°F26.3°C 68.2°F20.1°C 69% 4.6 mph NE7.4 kmh NE 4.6 mph7.4 kmh 29.89 in1012.2 mb - 0.00 in0.0 mm 0.01 in0.3 mm
03:00 PM 77.0°F25.0°C 67.6°F19.8°C 73% 6.9 mph NE11.1 kmh NE 8.1 mph13.0 kmh 29.90 in1012.5 mb - 0.00 in0.0 mm 0.01 in0.3 mm
02:30 PM 76.0°F24.4°C 67.5°F19.7°C 75% 3.5 mph NE5.6 kmh NE 3.5 mph5.6 kmh 29.91 in1012.9 mb - 0.00 in0.0 mm 0.01 in0.3 mm
02:00 PM 75.4°F24.1°C 67.3°F19.6°C 76% 4.6 mph NNE7.4 kmh NNE 5.8 mph9.3 kmh 29.92 in1013.2 mb - 0.00 in0.0 mm 0.01 in0.3 mm
01:30 PM 76.8°F24.9°C 67.8°F19.9°C 74% 4.6 mph ENE7.4 kmh ENE 6.9 mph11.1 kmh 29.93 in1013.5 mb - 0.00 in0.0 mm 0.01 in0.3 mm
01:00 PM 76.5°F24.7°C 67.2°F19.6°C 73% 6.9 mph NNE11.1 kmh NNE 6.9 mph11.1 kmh 29.95 in1014.2 mb - 0.00 in0.0 mm 0.01 in0.3 mm
12:30 PM 75.9°F24.4°C 67.4°F19.7°C 75% 8.1 mph NE13.0 kmh NE 10.4 mph16.7 kmh 29.96 in1014.6 mb - 0.00 in0.0 mm 0.01 in0.3 mm
12:00 PM 74.4°F23.6°C 66.3°F19.1°C 76% 5.8 mph NE9.3 kmh NE 8.1 mph13.0 kmh 29.98 in1015.2 mb - 0.00 in0.0 mm 0.01 in0.3 mm
11:30 AM 72.7°F22.6°C 65.4°F18.6°C 78% 5.8 mph N9.3 kmh N 5.8 mph9.3 kmh 29.98 in1015.2 mb - 0.00 in0.0 mm 0.01 in0.3 mm
11:00 AM 71.4°F21.9°C 64.9°F18.3°C 80% 4.6 mph SE7.4 kmh SE 5.8 mph9.3 kmh 29.98 in1015.2 mb - 0.00 in0.0 mm 0.01 in0.3 mm
10:30 AM 70.9°F21.6°C 64.1°F17.8°C 79% 4.6 mph NE7.4 kmh NE 5.8 mph9.3 kmh 29.98 in1015.2 mb - 0.00 in0.0 mm 0.01 in0.3 mm
10:00 AM 68.5°F20.3°C 62.8°F17.1°C 82% 6.9 mph E11.1 kmh E 6.9 mph11.1 kmh 29.99 in1015.6 mb - 0.00 in0.0 mm 0.01 in0.3 mm
09:30 AM 66.6°F19.2°C 61.9°F16.6°C 85% 5.8 mph ENE9.3 kmh ENE 8.1 mph13.0 kmh 29.99 in1015.6 mb - 0.00 in0.0 mm 0.01 in0.3 mm
09:00 AM 64.1°F17.8°C 61.8°F16.6°C 92% 4.6 mph NE7.4 kmh NE 5.8 mph9.3 kmh 29.99 in1015.6 mb - 0.00 in0.0 mm 0.01 in0.3 mm
08:30 AM 60.6°F15.9°C 59.7°F15.4°C 97% 4.6 mph ESE7.4 kmh ESE 5.8 mph9.3 kmh 29.98 in1015.2 mb - 0.00 in0.0 mm 0.01 in0.3 mm
08:00 AM 59.4°F15.2°C 59.1°F15.1°C 99% 4.6 mph E7.4 kmh E 5.8 mph9.3 kmh 29.98 in1015.2 mb - 0.00 in0.0 mm 0.01 in0.3 mm
07:30 AM 59.2°F15.1°C 58.9°F14.9°C 99% 2.3 mph NE3.7 kmh NE 3.5 mph5.6 kmh 29.98 in1015.2 mb - 0.01 in0.3 mm 0.01 in0.3 mm
07:00 AM 59.4°F15.2°C 58.8°F14.9°C 98% 2.3 mph NE3.7 kmh NE 2.3 mph3.7 kmh 29.98 in1015.2 mb - 0.01 in0.3 mm 0.01 in0.3 mm
06:30 AM 59.4°F15.2°C 59.1°F15.1°C 99% 4.6 mph NE7.4 kmh NE 4.6 mph7.4 kmh 29.98 in1015.2 mb - 0.00 in0.0 mm 0.00 in0.0 mm
06:00 AM 59.0°F15.0°C 58.7°F14.8°C 99% 4.6 mph E7.4 kmh E 5.8 mph9.3 kmh 29.98 in1015.2 mb - 0.00 in0.0 mm 0.00 in0.0 mm
05:30 AM 59.0°F15.0°C 58.7°F14.8°C 99% 3.5 mph ENE5.6 kmh ENE 4.6 mph7.4 kmh 29.98 in1015.2 mb - 0.00 in0.0 mm 0.00 in0.0 mm
05:00 AM 59.2°F15.1°C 58.6°F14.8°C 98% 4.6 mph ESE7.4 kmh ESE 5.8 mph9.3 kmh 29.98 in1015.2 mb - 0.00 in0.0 mm 0.00 in0.0 mm
04:30 AM 60.1°F15.6°C 58.4°F14.7°C 94% 3.5 mph ENE5.6 kmh ENE 4.6 mph7.4 kmh 29.98 in1015.2 mb - 0.00 in0.0 mm 0.00 in0.0 mm
04:00 AM 60.4°F15.8°C 58.4°F14.7°C 93% 4.6 mph NE7.4 kmh NE 4.6 mph7.4 kmh 30.00 in1015.9 mb - 0.00 in0.0 mm 0.00 in0.0 mm
03:30 AM 61.0°F16.1°C 58.7°F14.8°C 92% 2.3 mph ENE3.7 kmh ENE 3.5 mph5.6 kmh 30.01 in1016.3 mb - 0.00 in0.0 mm 0.00 in0.0 mm
03:00 AM 61.2°F16.2°C 58.6°F14.8°C 91% 4.6 mph NE7.4 kmh NE 4.6 mph7.4 kmh 30.01 in1016.3 mb - 0.00 in0.0 mm 0.00 in0.0 mm
02:30 AM 61.5°F16.4°C 59.2°F15.1°C 92% 3.5 mph N5.6 kmh N 4.6 mph7.4 kmh 30.01 in1016.3 mb - 0.00 in0.0 mm 0.00 in0.0 mm
02:00 AM 61.7°F16.5°C 59.0°F15.0°C 91% 3.5 mph NE5.6 kmh NE 4.6 mph7.4 kmh 30.01 in1016.3 mb - 0.00 in0.0 mm 0.00 in0.0 mm
01:30 AM 61.7°F16.5°C 59.4°F15.2°C 92% 4.6 mph NE7.4 kmh NE 4.6 mph7.4 kmh 30.01 in1016.3 mb - 0.00 in0.0 mm 0.00 in0.0 mm
01:00 AM 61.9°F16.6°C 58.9°F14.9°C 90% 3.5 mph W5.6 kmh W 3.5 mph5.6 kmh 30.03 in1016.9 mb - 0.00 in0.0 mm 0.00 in0.0 mm
12:30 AM 61.5°F16.4°C 58.8°F14.9°C 91% 4.6 mph E7.4 kmh E 5.8 mph9.3 kmh 30.03 in1016.9 mb - 0.00 in0.0 mm 0.00 in0.0 mm
12:00 AM 61.7°F16.5°C 58.7°F14.8°C 90% 3.5 mph E5.6 kmh E 3.5 mph5.6 kmh 30.05 in1017.6 mb - 0.00 in0.0 mm 0.00 in0.0 mm